sensor_id;sensor_type;location;lat;lon;timestamp;pressure;altitude;pressure_sealevel;temperature;humidity
13486;BME280;6815;59.336;17.998;2023-01-10T00:02:05;77197.53;;;-145.37;100.00
13486;BME280;6815;59.336;17.998;2023-01-10T00:04:31;77203.56;;;-145.37;100.00
13486;BME280;6815;59.336;17.998;2023-01-10T00:06:56;77219.66;;;-145.37;100.00
13486;BME280;6815;59.336;17.998;2023-01-10T00:09:22;77207.59;;;-145.37;100.00
13486;BME280;6815;59.336;17.998;2023-01-10T00:11:47;77211.59;;;-145.37;100.00
13486;BME280;6815;59.336;17.998;2023-01-10T00:14:31;77219.66;;;-145.37;100.00
13486;BME280;6815;59.336;17.998;2023-01-10T00:17:00;77205.56;;;-145.37;100.00
13486;BME280;6815;59.336;17.998;2023-01-10T00:19:26;77195.53;;;-145.37;100.00
13486;BME280;6815;59.336;17.998;2023-01-10T00:21:51;77197.53;;;-145.37;100.00
13486;BME280;6815;59.336;17.998;2023-01-10T00:24:19;77191.50;;;-145.37;100.00
13486;BME280;6815;59.336;17.998;2023-01-10T00:26:49;77209.59;;;-145.37;100.00
13486;BME280;6815;59.336;17.998;2023-01-10T00:29:39;77203.56;;;-145.37;100.00
13486;BME280;6815;59.336;17.998;2023-01-10T00:32:05;77205.56;;;-145.37;100.00
13486;BME280;6815;59.336;17.998;2023-01-10T00:34:32;77203.56;;;-145.37;100.00
13486;BME280;6815;59.336;17.998;2023-01-10T00:36:58;77201.56;;;-145.37;100.00
13486;BME280;6815;59.336;17.998;2023-01-10T00:39:24;77203.56;;;-145.37;100.00
13486;BME280;6815;59.336;17.998;2023-01-10T00:41:51;77201.56;;;-145.37;100.00
13486;BME280;6815;59.336;17.998;2023-01-10T00:44:35;77201.56;;;-145.37;100.00
13486;BME280;6815;59.336;17.998;2023-01-10T00:47:01;77195.53;;;-145.37;100.00
13486;BME280;6815;59.336;17.998;2023-01-10T00:49:27;77193.50;;;-145.37;100.00
13486;BME280;6815;59.336;17.998;2023-01-10T00:51:52;77197.53;;;-145.37;100.00
13486;BME280;6815;59.336;17.998;2023-01-10T00:54:22;77209.59;;;-145.37;100.00
13486;BME280;6815;59.336;17.998;2023-01-10T00:56:47;77185.47;;;-145.37;100.00
13486;BME280;6815;59.336;17.998;2023-01-10T00:59:13;77201.56;;;-145.37;100.00
13486;BME280;6815;59.336;17.998;2023-01-10T01:01:38;77201.56;;;-145.37;100.00
13486;BME280;6815;59.336;17.998;2023-01-10T01:04:04;77215.63;;;-145.37;100.00
13486;BME280;6815;59.336;17.998;2023-01-10T01:06:30;77215.63;;;-145.37;100.00
13486;BME280;6815;59.336;17.998;2023-01-10T01:08:55;77199.53;;;-145.37;100.00
13486;BME280;6815;59.336;17.998;2023-01-10T01:11:20;77211.59;;;-145.37;100.00
13486;BME280;6815;59.336;17.998;2023-01-10T01:13:46;77215.63;;;-145.37;100.00
13486;BME280;6815;59.336;17.998;2023-01-10T01:16:11;77209.59;;;-145.37;100.00
13486;BME280;6815;59.336;17.998;2023-01-10T01:18:37;77213.63;;;-145.37;100.00
13486;BME280;6815;59.336;17.998;2023-01-10T01:21:02;77219.66;;;-145.37;100.00
13486;BME280;6815;59.336;17.998;2023-01-10T01:23:32;77209.59;;;-145.37;100.00
13486;BME280;6815;59.336;17.998;2023-01-10T01:25:57;77213.63;;;-145.37;100.00
13486;BME280;6815;59.336;17.998;2023-01-10T01:28:23;77193.50;;;-145.37;100.00
13486;BME280;6815;59.336;17.998;2023-01-10T01:30:50;77195.53;;;-145.37;100.00
13486;BME280;6815;59.336;17.998;2023-01-10T01:33:17;77195.53;;;-145.37;100.00
13486;BME280;6815;59.336;17.998;2023-01-10T01:35:46;77193.50;;;-145.37;100.00
13486;BME280;6815;59.336;17.998;2023-01-10T01:38:13;77195.53;;;-145.37;100.00
13486;BME280;6815;59.336;17.998;2023-01-10T01:40:39;77195.53;;;-145.37;100.00
13486;BME280;6815;59.336;17.998;2023-01-10T01:43:23;77199.53;;;-145.37;100.00
13486;BME280;6815;59.336;17.998;2023-01-10T01:45:49;77197.53;;;-145.37;100.00
13486;BME280;6815;59.336;17.998;2023-01-10T01:51:28;77215.63;;;-145.37;100.00
13486;BME280;6815;59.336;17.998;2023-01-10T01:56:36;77211.59;;;-145.37;100.00
13486;BME280;6815;59.336;17.998;2023-01-10T01:59:11;77203.56;;;-145.37;100.00
13486;BME280;6815;59.336;17.998;2023-01-10T02:01:40;77203.56;;;-145.37;100.00
13486;BME280;6815;59.336;17.998;2023-01-10T02:04:15;77213.63;;;-145.37;100.00
13486;BME280;6815;59.336;17.998;2023-01-10T02:06:41;77205.56;;;-145.37;100.00
13486;BME280;6815;59.336;17.998;2023-01-10T02:09:17;77213.63;;;-145.37;100.00
13486;BME280;6815;59.336;17.998;2023-01-10T02:11:45;77197.53;;;-145.37;100.00
13486;BME280;6815;59.336;17.998;2023-01-10T02:14:13;77229.72;;;-145.37;100.00
13486;BME280;6815;59.336;17.998;2023-01-10T02:16:39;77217.63;;;-145.37;100.00
13486;BME280;6815;59.336;17.998;2023-01-10T02:22:06;77211.59;;;-145.37;100.00
13486;BME280;6815;59.336;17.998;2023-01-10T02:24:46;77207.59;;;-145.37;100.00
13486;BME280;6815;59.336;17.998;2023-01-10T02:30:40;77221.66;;;-145.37;100.00
13486;BME280;6815;59.336;17.998;2023-01-10T02:33:22;77213.63;;;-145.37;100.00
13486;BME280;6815;59.336;17.998;2023-01-10T02:35:53;77209.59;;;-145.37;100.00
13486;BME280;6815;59.336;17.998;2023-01-10T02:43:38;77213.63;;;-145.37;100.00
13486;BME280;6815;59.336;17.998;2023-01-10T02:46:10;77191.50;;;-145.37;100.00
13486;BME280;6815;59.336;17.998;2023-01-10T02:48:40;77209.59;;;-145.37;100.00
13486;BME280;6815;59.336;17.998;2023-01-10T02:51:37;77209.59;;;-145.37;100.00
13486;BME280;6815;59.336;17.998;2023-01-10T02:54:16;77175.41;;;-145.37;100.00
13486;BME280;6815;59.336;17.998;2023-01-10T03:03:22;77195.53;;;-145.37;100.00
13486;BME280;6815;59.336;17.998;2023-01-10T03:05:54;77199.53;;;-145.37;100.00
13486;BME280;6815;59.336;17.998;2023-01-10T03:11:29;77201.56;;;-145.37;100.00
13486;BME280;6815;59.336;17.998;2023-01-10T03:14:12;77215.63;;;-145.37;100.00
13486;BME280;6815;59.336;17.998;2023-01-10T03:16:40;77203.56;;;-145.37;100.00
13486;BME280;6815;59.336;17.998;2023-01-10T03:19:12;77199.53;;;-145.37;100.00
13486;BME280;6815;59.336;17.998;2023-01-10T03:21:42;77197.53;;;-145.37;100.00
13486;BME280;6815;59.336;17.998;2023-01-10T03:24:12;77199.53;;;-145.37;100.00
13486;BME280;6815;59.336;17.998;2023-01-10T03:26:56;77199.53;;;-145.37;100.00
13486;BME280;6815;59.336;17.998;2023-01-10T03:30:05;77199.53;;;-145.37;100.00
13486;BME280;6815;59.336;17.998;2023-01-10T03:32:38;77201.56;;;-145.37;100.00
13486;BME280;6815;59.336;17.998;2023-01-10T03:35:05;77201.56;;;-145.37;100.00
13486;BME280;6815;59.336;17.998;2023-01-10T03:37:40;77187.47;;;-145.37;100.00
13486;BME280;6815;59.336;17.998;2023-01-10T03:40:12;77175.41;;;-145.37;100.00
13486;BME280;6815;59.336;17.998;2023-01-10T03:42:57;77207.59;;;-145.37;100.00
13486;BME280;6815;59.336;17.998;2023-01-10T03:46:08;77203.56;;;-145.37;100.00
13486;BME280;6815;59.336;17.998;2023-01-10T03:48:37;77185.47;;;-145.37;100.00
13486;BME280;6815;59.336;17.998;2023-01-10T03:51:06;77191.50;;;-145.37;100.00
13486;BME280;6815;59.336;17.998;2023-01-10T03:53:33;77201.56;;;-145.37;100.00
13486;BME280;6815;59.336;17.998;2023-01-10T03:56:01;77181.44;;;-145.37;100.00
13486;BME280;6815;59.336;17.998;2023-01-10T03:58:30;77181.44;;;-145.37;100.00
13486;BME280;6815;59.336;17.998;2023-01-10T04:00:55;77193.50;;;-145.37;100.00
13486;BME280;6815;59.336;17.998;2023-01-10T04:03:21;77189.50;;;-145.37;100.00
13486;BME280;6815;59.336;17.998;2023-01-10T04:05:46;77195.53;;;-145.37;100.00
13486;BME280;6815;59.336;17.998;2023-01-10T04:08:12;77185.47;;;-145.37;100.00
13486;BME280;6815;59.336;17.998;2023-01-10T04:10:37;77191.50;;;-145.37;100.00
13486;BME280;6815;59.336;17.998;2023-01-10T04:13:03;77195.53;;;-145.37;100.00
13486;BME280;6815;59.336;17.998;2023-01-10T04:15:29;77197.53;;;-145.37;100.00
13486;BME280;6815;59.336;17.998;2023-01-10T04:17:55;77199.53;;;-145.37;100.00
13486;BME280;6815;59.336;17.998;2023-01-10T04:20:21;77203.56;;;-145.37;100.00
13486;BME280;6815;59.336;17.998;2023-01-10T04:22:49;77209.59;;;-145.37;100.00
13486;BME280;6815;59.336;17.998;2023-01-10T04:25:15;77193.50;;;-145.37;100.00
13486;BME280;6815;59.336;17.998;2023-01-10T04:27:41;77195.53;;;-145.37;100.00
13486;BME280;6815;59.336;17.998;2023-01-10T04:30:07;77177.41;;;-145.37;100.00
13486;BME280;6815;59.336;17.998;2023-01-10T04:32:33;77183.47;;;-145.37;100.00
13486;BME280;6815;59.336;17.998;2023-01-10T04:34:58;77197.53;;;-145.37;100.00
13486;BME280;6815;59.336;17.998;2023-01-10T04:37:24;77201.56;;;-145.37;100.00
13486;BME280;6815;59.336;17.998;2023-01-10T04:39:49;77195.53;;;-145.37;100.00
13486;BME280;6815;59.336;17.998;2023-01-10T04:42:15;77185.47;;;-145.37;100.00
13486;BME280;6815;59.336;17.998;2023-01-10T04:44:41;77165.34;;;-145.37;100.00
13486;BME280;6815;59.336;17.998;2023-01-10T04:47:07;77169.38;;;-145.37;100.00
13486;BME280;6815;59.336;17.998;2023-01-10T04:49:34;77163.34;;;-145.37;100.00
13486;BME280;6815;59.336;17.998;2023-01-10T04:51:59;77175.41;;;-145.37;100.00
13486;BME280;6815;59.336;17.998;2023-01-10T04:54:25;77167.38;;;-145.37;100.00
13486;BME280;6815;59.336;17.998;2023-01-10T04:56:50;77163.34;;;-145.37;100.00
13486;BME280;6815;59.336;17.998;2023-01-10T04:59:16;77159.31;;;-145.37;100.00
13486;BME280;6815;59.336;17.998;2023-01-10T05:01:44;77165.34;;;-145.37;100.00
13486;BME280;6815;59.336;17.998;2023-01-10T05:04:09;77165.34;;;-145.37;100.00
13486;BME280;6815;59.336;17.998;2023-01-10T05:06:35;77177.41;;;-145.37;100.00
13486;BME280;6815;59.336;17.998;2023-01-10T05:09:01;77163.34;;;-145.37;100.00
13486;BME280;6815;59.336;17.998;2023-01-10T05:11:27;77161.34;;;-145.37;100.00
13486;BME280;6815;59.336;17.998;2023-01-10T05:13:53;77157.31;;;-145.37;100.00
13486;BME280;6815;59.336;17.998;2023-01-10T05:16:19;77163.34;;;-145.37;100.00
13486;BME280;6815;59.336;17.998;2023-01-10T05:18:44;77145.25;;;-145.37;100.00
13486;BME280;6815;59.336;17.998;2023-01-10T05:21:11;77153.28;;;-145.37;100.00
13486;BME280;6815;59.336;17.998;2023-01-10T05:23:37;77145.25;;;-145.37;100.00
13486;BME280;6815;59.336;17.998;2023-01-10T05:26:11;77149.28;;;-145.37;100.00
13486;BME280;6815;59.336;17.998;2023-01-10T05:28:38;77149.28;;;-145.37;100.00
13486;BME280;6815;59.336;17.998;2023-01-10T05:31:09;77143.25;;;-145.37;100.00
13486;BME280;6815;59.336;17.998;2023-01-10T05:33:35;77131.16;;;-145.37;100.00
13486;BME280;6815;59.336;17.998;2023-01-10T05:36:05;77141.22;;;-145.37;100.00
13486;BME280;6815;59.336;17.998;2023-01-10T05:38:31;77133.19;;;-145.37;100.00
13486;BME280;6815;59.336;17.998;2023-01-10T05:40:58;77123.13;;;-145.37;100.00
13486;BME280;6815;59.336;17.998;2023-01-10T05:43:24;77129.16;;;-145.37;100.00
13486;BME280;6815;59.336;17.998;2023-01-10T05:45:51;77131.16;;;-145.37;100.00
13486;BME280;6815;59.336;17.998;2023-01-10T05:48:17;77129.16;;;-145.37;100.00
13486;BME280;6815;59.336;17.998;2023-01-10T05:50:43;77111.06;;;-145.37;100.00
13486;BME280;6815;59.336;17.998;2023-01-10T05:53:10;77123.13;;;-145.37;100.00
13486;BME280;6815;59.336;17.998;2023-01-10T05:55:36;77119.09;;;-145.37;100.00
13486;BME280;6815;59.336;17.998;2023-01-10T05:58:01;77121.13;;;-145.37;100.00
13486;BME280;6815;59.336;17.998;2023-01-10T06:00:27;77115.09;;;-145.37;100.00
13486;BME280;6815;59.336;17.998;2023-01-10T06:02:54;77117.09;;;-145.37;100.00
13486;BME280;6815;59.336;17.998;2023-01-10T06:05:20;77123.13;;;-145.37;100.00
13486;BME280;6815;59.336;17.998;2023-01-10T06:07:46;77109.06;;;-145.37;100.00
13486;BME280;6815;59.336;17.998;2023-01-10T06:10:11;77109.06;;;-145.37;100.00
13486;BME280;6815;59.336;17.998;2023-01-10T06:12:40;77092.97;;;-145.37;100.00
13486;BME280;6815;59.336;17.998;2023-01-10T06:15:07;77103.03;;;-145.37;100.00
13486;BME280;6815;59.336;17.998;2023-01-10T06:17:32;77097.00;;;-145.37;100.00
13486;BME280;6815;59.336;17.998;2023-01-10T06:19:58;77088.94;;;-145.37;100.00
13486;BME280;6815;59.336;17.998;2023-01-10T06:22:23;77074.88;;;-145.37;100.00
13486;BME280;6815;59.336;17.998;2023-01-10T06:24:50;77086.94;;;-145.37;100.00
13486;BME280;6815;59.336;17.998;2023-01-10T06:27:17;77099.00;;;-145.37;100.00
13486;BME280;6815;59.336;17.998;2023-01-10T06:29:42;77074.88;;;-145.37;100.00
13486;BME280;6815;59.336;17.998;2023-01-10T06:32:08;77072.84;;;-145.37;100.00
13486;BME280;6815;59.336;17.998;2023-01-10T06:34:33;77060.78;;;-145.37;100.00
13486;BME280;6815;59.336;17.998;2023-01-10T06:40:25;77074.88;;;-145.37;100.00
13486;BME280;6815;59.336;17.998;2023-01-10T06:42:51;77072.84;;;-145.37;100.00
13486;BME280;6815;59.336;17.998;2023-01-10T06:45:17;77084.91;;;-145.37;100.00
13486;BME280;6815;59.336;17.998;2023-01-10T06:47:42;77088.94;;;-145.37;100.00
13486;BME280;6815;59.336;17.998;2023-01-10T06:50:11;77092.97;;;-145.37;100.00
13486;BME280;6815;59.336;17.998;2023-01-10T06:52:37;77074.88;;;-145.37;100.00
13486;BME280;6815;59.336;17.998;2023-01-10T06:55:04;77068.84;;;-145.37;100.00
13486;BME280;6815;59.336;17.998;2023-01-10T06:57:30;77076.88;;;-145.37;100.00
13486;BME280;6815;59.336;17.998;2023-01-10T06:59:58;77072.84;;;-145.37;100.00
13486;BME280;6815;59.336;17.998;2023-01-10T07:02:23;77070.84;;;-145.37;100.00
13486;BME280;6815;59.336;17.998;2023-01-10T07:04:50;77066.81;;;-145.37;100.00
13486;BME280;6815;59.336;17.998;2023-01-10T07:07:15;77054.75;;;-145.37;100.00
13486;BME280;6815;59.336;17.998;2023-01-10T07:09:41;77058.78;;;-145.37;100.00
13486;BME280;6815;59.336;17.998;2023-01-10T07:12:06;77046.72;;;-145.37;100.00
13486;BME280;6815;59.336;17.998;2023-01-10T07:14:32;77044.72;;;-145.37;100.00
13486;BME280;6815;59.336;17.998;2023-01-10T07:16:58;77060.78;;;-145.37;100.00
13486;BME280;6815;59.336;17.998;2023-01-10T07:19:24;77052.75;;;-145.37;100.00
13486;BME280;6815;59.336;17.998;2023-01-10T07:21:49;77046.72;;;-145.37;100.00
13486;BME280;6815;59.336;17.998;2023-01-10T07:24:15;77056.78;;;-145.37;100.00
13486;BME280;6815;59.336;17.998;2023-01-10T07:26:40;77052.75;;;-145.37;100.00
13486;BME280;6815;59.336;17.998;2023-01-10T07:29:06;77048.72;;;-145.37;100.00
13486;BME280;6815;59.336;17.998;2023-01-10T07:31:31;77054.75;;;-145.37;100.00
13486;BME280;6815;59.336;17.998;2023-01-10T07:33:57;77064.81;;;-145.37;100.00
13486;BME280;6815;59.336;17.998;2023-01-10T07:36:23;77064.81;;;-145.37;100.00
13486;BME280;6815;59.336;17.998;2023-01-10T07:38:48;77062.81;;;-145.37;100.00
13486;BME280;6815;59.336;17.998;2023-01-10T07:41:15;77062.81;;;-145.37;100.00
13486;BME280;6815;59.336;17.998;2023-01-10T07:43:40;77070.84;;;-145.37;100.00
13486;BME280;6815;59.336;17.998;2023-01-10T07:46:07;77072.84;;;-145.37;100.00
13486;BME280;6815;59.336;17.998;2023-01-10T07:48:34;77072.84;;;-145.37;100.00
13486;BME280;6815;59.336;17.998;2023-01-10T07:51:00;77080.91;;;-145.37;100.00
13486;BME280;6815;59.336;17.998;2023-01-10T07:53:27;77101.00;;;-145.37;100.00
13486;BME280;6815;59.336;17.998;2023-01-10T07:55:53;77086.94;;;-145.37;100.00
13486;BME280;6815;59.336;17.998;2023-01-10T07:58:22;77092.97;;;-145.37;100.00
13486;BME280;6815;59.336;17.998;2023-01-10T08:00:48;77097.00;;;-145.37;100.00
13486;BME280;6815;59.336;17.998;2023-01-10T08:03:15;77101.00;;;-145.37;100.00
13486;BME280;6815;59.336;17.998;2023-01-10T08:05:41;77103.03;;;-145.37;100.00
13486;BME280;6815;59.336;17.998;2023-01-10T08:08:08;77101.00;;;-145.37;100.00
13486;BME280;6815;59.336;17.998;2023-01-10T08:10:35;77113.06;;;-145.37;100.00
13486;BME280;6815;59.336;17.998;2023-01-10T08:13:01;77111.06;;;-145.37;100.00
13486;BME280;6815;59.336;17.998;2023-01-10T08:15:27;77097.00;;;-145.37;100.00
13486;BME280;6815;59.336;17.998;2023-01-10T08:17:53;77105.03;;;-145.37;100.00
13486;BME280;6815;59.336;17.998;2023-01-10T08:20:18;77111.06;;;-145.37;100.00
13486;BME280;6815;59.336;17.998;2023-01-10T08:22:44;77103.03;;;-145.37;100.00
13486;BME280;6815;59.336;17.998;2023-01-10T08:25:12;77092.97;;;-145.37;100.00
13486;BME280;6815;59.336;17.998;2023-01-10T08:27:38;77094.97;;;-145.37;100.00
13486;BME280;6815;59.336;17.998;2023-01-10T08:30:05;77099.00;;;-145.37;100.00
13486;BME280;6815;59.336;17.998;2023-01-10T08:32:31;77090.97;;;-145.37;100.00
13486;BME280;6815;59.336;17.998;2023-01-10T08:34:57;77090.97;;;-145.37;100.00
13486;BME280;6815;59.336;17.998;2023-01-10T08:37:24;77111.06;;;-145.37;100.00
13486;BME280;6815;59.336;17.998;2023-01-10T08:39:50;77111.06;;;-145.37;100.00
13486;BME280;6815;59.336;17.998;2023-01-10T08:42:16;77105.03;;;-145.37;100.00
13486;BME280;6815;59.336;17.998;2023-01-10T08:44:43;77109.06;;;-145.37;100.00
13486;BME280;6815;59.336;17.998;2023-01-10T08:47:09;77107.03;;;-145.37;100.00
13486;BME280;6815;59.336;17.998;2023-01-10T08:49:37;77105.03;;;-145.37;100.00
13486;BME280;6815;59.336;17.998;2023-01-10T08:52:03;77105.03;;;-145.37;100.00
13486;BME280;6815;59.336;17.998;2023-01-10T08:54:28;77097.00;;;-145.37;100.00
13486;BME280;6815;59.336;17.998;2023-01-10T08:56:54;77111.06;;;-145.37;100.00
13486;BME280;6815;59.336;17.998;2023-01-10T08:59:19;77111.06;;;-145.37;100.00
13486;BME280;6815;59.336;17.998;2023-01-10T09:01:45;77109.06;;;-145.37;100.00
13486;BME280;6815;59.336;17.998;2023-01-10T09:04:10;77125.13;;;-145.37;100.00
13486;BME280;6815;59.336;17.998;2023-01-10T09:06:36;77117.09;;;-145.37;100.00
13486;BME280;6815;59.336;17.998;2023-01-10T09:09:02;77123.13;;;-145.37;100.00
13486;BME280;6815;59.336;17.998;2023-01-10T09:11:28;77127.16;;;-145.37;100.00
13486;BME280;6815;59.336;17.998;2023-01-10T09:13:53;77131.16;;;-145.37;100.00
13486;BME280;6815;59.336;17.998;2023-01-10T09:16:19;77131.16;;;-145.37;100.00
13486;BME280;6815;59.336;17.998;2023-01-10T09:18:44;77139.22;;;-145.37;100.00
13486;BME280;6815;59.336;17.998;2023-01-10T09:21:11;77123.13;;;-145.37;100.00
13486;BME280;6815;59.336;17.998;2023-01-10T09:23:37;77125.13;;;-145.37;100.00
13486;BME280;6815;59.336;17.998;2023-01-10T09:26:05;77125.13;;;-145.37;100.00
13486;BME280;6815;59.336;17.998;2023-01-10T09:28:31;77121.13;;;-145.37;100.00
13486;BME280;6815;59.336;17.998;2023-01-10T09:30:56;77129.16;;;-145.37;100.00
13486;BME280;6815;59.336;17.998;2023-01-10T09:33:22;77133.19;;;-145.37;100.00
13486;BME280;6815;59.336;17.998;2023-01-10T09:35:47;77133.19;;;-145.37;100.00
13486;BME280;6815;59.336;17.998;2023-01-10T09:38:15;77133.19;;;-145.37;100.00
13486;BME280;6815;59.336;17.998;2023-01-10T09:51:41;77135.19;;;-145.37;100.00
13486;BME280;6815;59.336;17.998;2023-01-10T09:54:28;77125.13;;;-145.37;100.00
13486;BME280;6815;59.336;17.998;2023-01-10T09:56:54;77125.13;;;-145.37;100.00
13486;BME280;6815;59.336;17.998;2023-01-10T09:59:25;77141.22;;;-145.37;100.00
13486;BME280;6815;59.336;17.998;2023-01-10T10:01:59;77133.19;;;-145.37;100.00
13486;BME280;6815;59.336;17.998;2023-01-10T10:04:35;77131.16;;;-145.37;100.00
13486;BME280;6815;59.336;17.998;2023-01-10T10:07:02;77119.09;;;-145.37;100.00
13486;BME280;6815;59.336;17.998;2023-01-10T10:09:30;77125.13;;;-145.37;100.00
13486;BME280;6815;59.336;17.998;2023-01-10T10:14:44;77119.09;;;-145.37;100.00
13486;BME280;6815;59.336;17.998;2023-01-10T10:28:41;77133.19;;;-145.37;100.00
13486;BME280;6815;59.336;17.998;2023-01-10T10:31:13;77133.19;;;-145.37;100.00
13486;BME280;6815;59.336;17.998;2023-01-10T10:36:14;77143.25;;;-145.37;100.00
13486;BME280;6815;59.336;17.998;2023-01-10T10:38:45;77143.25;;;-145.37;100.00
13486;BME280;6815;59.336;17.998;2023-01-10T10:41:39;77143.25;;;-145.37;100.00
13486;BME280;6815;59.336;17.998;2023-01-10T10:44:39;77145.25;;;-145.37;100.00
13486;BME280;6815;59.336;17.998;2023-01-10T10:47:14;77155.31;;;-145.37;100.00
13486;BME280;6815;59.336;17.998;2023-01-10T10:52:26;77155.31;;;-145.37;100.00
13486;BME280;6815;59.336;17.998;2023-01-10T10:54:55;77155.31;;;-145.37;100.00
13486;BME280;6815;59.336;17.998;2023-01-10T10:57:24;77149.28;;;-145.37;100.00
13486;BME280;6815;59.336;17.998;2023-01-10T10:59:50;77145.25;;;-145.37;100.00
13486;BME280;6815;59.336;17.998;2023-01-10T11:02:31;77163.34;;;-145.37;100.00
13486;BME280;6815;59.336;17.998;2023-01-10T11:05:12;77151.28;;;-145.37;100.00
13486;BME280;6815;59.336;17.998;2023-01-10T11:07:39;77161.34;;;-145.37;100.00
13486;BME280;6815;59.336;17.998;2023-01-10T11:10:21;77143.25;;;-145.37;100.00
13486;BME280;6815;59.336;17.998;2023-01-10T11:13:29;77153.28;;;-145.37;100.00
13486;BME280;6815;59.336;17.998;2023-01-10T11:15:56;77167.38;;;-145.37;100.00
13486;BME280;6815;59.336;17.998;2023-01-10T11:18:25;77149.28;;;-145.37;100.00
13486;BME280;6815;59.336;17.998;2023-01-10T11:21:11;77163.34;;;-145.37;100.00
13486;BME280;6815;59.336;17.998;2023-01-10T11:23:56;77165.34;;;-145.37;100.00
13486;BME280;6815;59.336;17.998;2023-01-10T11:26:37;77159.31;;;-145.37;100.00
13486;BME280;6815;59.336;17.998;2023-01-10T11:29:51;77149.28;;;-145.37;100.00
13486;BME280;6815;59.336;17.998;2023-01-10T11:31:54;77147.25;;;-145.37;100.00
13486;BME280;6815;59.336;17.998;2023-01-10T11:37:28;77151.28;;;-145.37;100.00
13486;BME280;6815;59.336;17.998;2023-01-10T11:40:14;77157.31;;;-145.37;100.00
13486;BME280;6815;59.336;17.998;2023-01-10T11:42:40;77145.25;;;-145.37;100.00
13486;BME280;6815;59.336;17.998;2023-01-10T11:47:50;77143.25;;;-145.37;100.00
13486;BME280;6815;59.336;17.998;2023-01-10T11:50:25;77143.25;;;-145.37;100.00
13486;BME280;6815;59.336;17.998;2023-01-10T11:52:53;77145.25;;;-145.37;100.00
13486;BME280;6815;59.336;17.998;2023-01-10T11:55:22;77151.28;;;-145.37;100.00
13486;BME280;6815;59.336;17.998;2023-01-10T11:58:04;77149.28;;;-145.37;100.00
13486;BME280;6815;59.336;17.998;2023-01-10T12:00:32;77139.22;;;-145.37;100.00
13486;BME280;6815;59.336;17.998;2023-01-10T12:03:01;77149.28;;;-145.37;100.00
13486;BME280;6815;59.336;17.998;2023-01-10T12:05:26;77159.31;;;-145.37;100.00
13486;BME280;6815;59.336;17.998;2023-01-10T12:07:59;77151.28;;;-145.37;100.00
13486;BME280;6815;59.336;17.998;2023-01-10T12:10:27;77149.28;;;-145.37;100.00
13486;BME280;6815;59.336;17.998;2023-01-10T12:12:55;77147.25;;;-145.37;100.00
13486;BME280;6815;59.336;17.998;2023-01-10T12:15:29;77139.22;;;-145.37;100.00
13486;BME280;6815;59.336;17.998;2023-01-10T12:17:58;77151.28;;;-145.37;100.00
13486;BME280;6815;59.336;17.998;2023-01-10T12:20:28;77149.28;;;-145.37;100.00
13486;BME280;6815;59.336;17.998;2023-01-10T12:23:00;77141.22;;;-145.37;100.00
13486;BME280;6815;59.336;17.998;2023-01-10T12:25:36;77141.22;;;-145.37;100.00
13486;BME280;6815;59.336;17.998;2023-01-10T12:28:03;77147.25;;;-145.37;100.00
13486;BME280;6815;59.336;17.998;2023-01-10T12:30:37;77149.28;;;-145.37;100.00
13486;BME280;6815;59.336;17.998;2023-01-10T12:33:10;77145.25;;;-145.37;100.00
13486;BME280;6815;59.336;17.998;2023-01-10T12:35:58;77147.25;;;-145.37;100.00
13486;BME280;6815;59.336;17.998;2023-01-10T12:38:37;77157.31;;;-145.37;100.00
13486;BME280;6815;59.336;17.998;2023-01-10T12:41:42;77151.28;;;-145.37;100.00
13486;BME280;6815;59.336;17.998;2023-01-10T12:44:42;77153.28;;;-145.37;100.00
13486;BME280;6815;59.336;17.998;2023-01-10T12:50:08;77153.28;;;-145.37;100.00
13486;BME280;6815;59.336;17.998;2023-01-10T12:52:51;77157.31;;;-145.37;100.00
13486;BME280;6815;59.336;17.998;2023-01-10T12:55:22;77159.31;;;-145.37;100.00
13486;BME280;6815;59.336;17.998;2023-01-10T12:57:52;77159.31;;;-145.37;100.00
13486;BME280;6815;59.336;17.998;2023-01-10T13:00:25;77165.34;;;-145.37;100.00
13486;BME280;6815;59.336;17.998;2023-01-10T13:02:55;77155.31;;;-145.37;100.00
13486;BME280;6815;59.336;17.998;2023-01-10T13:05:29;77167.38;;;-145.37;100.00
13486;BME280;6815;59.336;17.998;2023-01-10T13:08:02;77159.31;;;-145.37;100.00
13486;BME280;6815;59.336;17.998;2023-01-10T13:10:30;77159.31;;;-145.37;100.00
13486;BME280;6815;59.336;17.998;2023-01-10T13:13:08;77171.38;;;-145.37;100.00
13486;BME280;6815;59.336;17.998;2023-01-10T13:15:47;77163.34;;;-145.37;100.00
13486;BME280;6815;59.336;17.998;2023-01-10T13:18:28;77181.44;;;-145.37;100.00
13486;BME280;6815;59.336;17.998;2023-01-10T13:21:10;77171.38;;;-145.37;100.00
13486;BME280;6815;59.336;17.998;2023-01-10T13:24:02;77171.38;;;-145.37;100.00
13486;BME280;6815;59.336;17.998;2023-01-10T13:26:51;77179.44;;;-145.37;100.00
13486;BME280;6815;59.336;17.998;2023-01-10T13:29:21;77177.41;;;-145.37;100.00
13486;BME280;6815;59.336;17.998;2023-01-10T13:31:47;77175.41;;;-145.37;100.00
13486;BME280;6815;59.336;17.998;2023-01-10T13:34:15;77175.41;;;-145.37;100.00
13486;BME280;6815;59.336;17.998;2023-01-10T13:36:53;77177.41;;;-145.37;100.00
13486;BME280;6815;59.336;17.998;2023-01-10T13:39:33;77169.38;;;-145.37;100.00
13486;BME280;6815;59.336;17.998;2023-01-10T13:52:47;77189.50;;;-145.37;100.00
13486;BME280;6815;59.336;17.998;2023-01-10T14:06:30;77189.50;;;-145.37;100.00
13486;BME280;6815;59.336;17.998;2023-01-10T14:11:25;77195.53;;;-145.37;100.00
13486;BME280;6815;59.336;17.998;2023-01-10T14:13:54;77187.47;;;-145.37;100.00
13486;BME280;6815;59.336;17.998;2023-01-10T14:16:31;77189.50;;;-145.37;100.00
13486;BME280;6815;59.336;17.998;2023-01-10T14:18:58;77185.47;;;-145.37;100.00